Time;durP1;ratioP1;P1;durP2;ratioP2;P2;SDS_P1;SDS_P2;PMS_P1;PMS_P2;Temp;Humidity;BMP_temperature;BMP_pressure;BME280_temperature;BME280_humidity;BME280_pressure;Samples;Min_cycle;Max_cycle;Signal;HPM_P1;HPM_P2
2021/11/26 00:02:18;;;;;;;;;;;4.40;99.90;;;;;;5070569;28;19966;-75
2021/11/26 00:04:44;;;;;;;;;;;4.40;99.90;;;;;;5072342;28;19913;-74
2021/11/26 00:07:10;;;;;;;;;;;4.40;99.90;;;;;;5068756;28;19920;-74
2021/11/26 00:09:35;;;;;;;;;;;4.40;99.90;;;;;;5065294;28;19958;-74
2021/11/26 00:12:01;;;;;;;;;;;4.40;99.90;;;;;;5065838;28;19916;-75
2021/11/26 00:14:30;;;;;;;;;;;4.40;99.90;;;;;;5061301;28;19920;-75
2021/11/26 00:16:57;;;;;;;;;;;4.30;99.90;;;;;;5068747;28;19921;-75
2021/11/26 00:19:24;;;;;;;;;;;4.30;99.90;;;;;;5075251;28;20007;-75
2021/11/26 00:21:49;;;;;;;;;;;4.30;99.90;;;;;;5061314;28;19923;-75
2021/11/26 00:24:17;;;;;;;;;;;4.20;99.90;;;;;;5062030;28;20577;-84
2021/11/26 00:26:43;;;;;;;;;;;4.10;99.90;;;;;;5069251;28;19943;-77
2021/11/26 00:29:09;;;;;;;;;;;4.20;99.90;;;;;;5064748;28;21464;-75
2021/11/26 00:31:35;;;;;;;;;;;4.10;99.90;;;;;;5065946;28;20311;-84
2021/11/26 00:34:00;;;;;;;;;;;4.10;99.90;;;;;;5069949;28;19920;-85
2021/11/26 00:36:26;;;;;;;;;;;4.00;99.90;;;;;;5069474;28;19920;-75
2021/11/26 00:38:51;;;;;;;;;;;4.00;99.90;;;;;;5059811;28;19935;-74
2021/11/26 00:41:17;;;;;;;;;;;4.10;99.90;;;;;;5069367;28;19923;-74
2021/11/26 00:43:44;;;;;;;;;;;4.20;99.90;;;;;;5069208;28;19923;-75
2021/11/26 00:46:10;;;;;;;;;;;4.30;99.90;;;;;;5073781;28;19912;-74
2021/11/26 00:48:35;;;;;;;;;;;4.20;99.90;;;;;;5072486;28;19951;-74
2021/11/26 00:51:01;;;;;;;;;;;4.30;99.90;;;;;;5070641;28;19920;-74
2021/11/26 00:53:27;;;;;;;;;;;4.30;99.90;;;;;;5070902;28;19916;-75
2021/11/26 00:55:52;;;;;;;;;;;4.20;99.90;;;;;;5072063;28;19920;-75
2021/11/26 00:58:18;;;;;;;;;;;4.20;99.90;;;;;;5070763;28;19916;-75
2021/11/26 01:00:43;;;;;;;;;;;4.20;99.90;;;;;;5073118;28;19963;-75
2021/11/26 01:03:09;;;;;;;;;;;4.20;99.90;;;;;;5088775;28;19923;-74
2021/11/26 01:05:35;;;;;;;;;;;4.20;99.90;;;;;;5077453;28;19912;-78
2021/11/26 01:08:01;;;;;;;;;;;4.20;99.90;;;;;;5076188;28;19942;-75
2021/11/26 01:10:26;;;;;;;;;;;4.20;99.90;;;;;;5073257;28;19995;-80
2021/11/26 01:12:52;;;;;;;;;;;4.20;99.90;;;;;;5078208;28;19916;-75
2021/11/26 01:15:20;;;;;;;;;;;4.20;99.90;;;;;;5075501;28;19928;-77
2021/11/26 01:17:48;;;;;;;;;;;4.20;99.90;;;;;;5077487;28;19951;-83
2021/11/26 01:20:16;;;;;;;;;;;4.20;99.90;;;;;;5065206;28;19912;-75
2021/11/26 01:22:42;;;;;;;;;;;4.10;99.90;;;;;;5073645;28;19916;-83
2021/11/26 01:25:08;;;;;;;;;;;4.10;99.90;;;;;;5073255;28;20372;-75
2021/11/26 01:27:35;;;;;;;;;;;4.10;99.90;;;;;;5066894;28;20218;-84
2021/11/26 01:30:05;;;;;;;;;;;4.20;99.90;;;;;;5077749;28;20315;-84
2021/11/26 01:32:31;;;;;;;;;;;4.20;99.90;;;;;;5071286;28;19920;-76
2021/11/26 01:34:57;;;;;;;;;;;4.20;99.90;;;;;;5080318;28;19920;-85
2021/11/26 01:37:22;;;;;;;;;;;4.20;99.90;;;;;;5076158;28;19920;-76
2021/11/26 01:39:48;;;;;;;;;;;4.20;99.90;;;;;;5077582;28;19956;-82
2021/11/26 01:42:15;;;;;;;;;;;4.30;99.90;;;;;;5069355;28;19923;-80
2021/11/26 01:44:40;;;;;;;;;;;4.30;99.90;;;;;;5076770;28;19919;-85
2021/11/26 01:47:06;;;;;;;;;;;4.40;99.90;;;;;;5079596;28;19912;-76
2021/11/26 01:49:36;;;;;;;;;;;4.40;99.90;;;;;;5075820;28;20205;-78
2021/11/26 01:52:01;;;;;;;;;;;4.40;99.90;;;;;;5080917;28;20313;-84
2021/11/26 01:54:29;;;;;;;;;;;4.40;99.90;;;;;;5078704;28;20013;-86
2021/11/26 01:56:54;;;;;;;;;;;4.50;99.90;;;;;;5075042;28;19916;-83
2021/11/26 01:59:20;;;;;;;;;;;4.40;99.90;;;;;;5071478;28;19920;-78
2021/11/26 02:01:45;;;;;;;;;;;4.40;99.90;;;;;;5077618;28;19916;-88
2021/11/26 02:04:11;;;;;;;;;;;4.40;99.90;;;;;;5073437;28;20223;-77
2021/11/26 02:06:37;;;;;;;;;;;4.40;99.90;;;;;;5071565;28;19913;-86
2021/11/26 02:09:03;;;;;;;;;;;4.50;99.90;;;;;;5080442;28;20046;-82
2021/11/26 02:11:28;;;;;;;;;;;4.60;99.90;;;;;;5071227;28;19920;-77
2021/11/26 02:13:54;;;;;;;;;;;4.60;99.90;;;;;;5072856;28;19999;-78
2021/11/26 02:16:19;;;;;;;;;;;4.60;99.90;;;;;;5076622;28;20010;-90
2021/11/26 02:18:46;;;;;;;;;;;4.60;99.90;;;;;;5073673;28;19920;-90
2021/11/26 02:21:12;;;;;;;;;;;4.60;99.90;;;;;;5070035;28;20206;-87
2021/11/26 02:23:37;;;;;;;;;;;4.60;99.90;;;;;;5072095;28;20012;-78
2021/11/26 02:26:03;;;;;;;;;;;4.60;99.90;;;;;;5070649;28;19916;-88
2021/11/26 02:28:29;;;;;;;;;;;4.60;99.90;;;;;;5074090;28;19931;-76
2021/11/26 02:30:54;;;;;;;;;;;4.50;99.90;;;;;;5076146;28;19909;-76
2021/11/26 02:33:21;;;;;;;;;;;4.50;99.90;;;;;;5065754;28;20023;-89
2021/11/26 02:35:49;;;;;;;;;;;4.40;99.90;;;;;;5069276;28;19970;-89
2021/11/26 02:38:15;;;;;;;;;;;4.40;99.90;;;;;;5083965;28;19913;-90
2021/11/26 02:40:42;;;;;;;;;;;4.30;99.90;;;;;;5077606;28;19935;-84
2021/11/26 02:43:08;;;;;;;;;;;4.30;99.90;;;;;;5074690;28;19962;-94
2021/11/26 02:45:34;;;;;;;;;;;4.30;99.90;;;;;;5075066;28;19947;-91
2021/11/26 02:48:00;;;;;;;;;;;4.20;99.90;;;;;;5074753;28;19916;-76
2021/11/26 02:50:26;;;;;;;;;;;4.20;99.90;;;;;;5068675;28;19957;-90
2021/11/26 02:52:52;;;;;;;;;;;4.20;99.90;;;;;;5091453;28;19920;-91
2021/11/26 02:55:19;;;;;;;;;;;4.10;99.90;;;;;;5072259;28;19924;-91
2021/11/26 02:57:45;;;;;;;;;;;4.10;99.90;;;;;;5074419;28;20322;-80
2021/11/26 03:00:12;;;;;;;;;;;4.10;99.90;;;;;;5076556;28;19913;-91
2021/11/26 03:02:38;;;;;;;;;;;4.10;99.90;;;;;;5074500;28;19908;-77
2021/11/26 03:05:04;;;;;;;;;;;4.10;99.90;;;;;;5075155;28;20583;-92
2021/11/26 03:07:30;;;;;;;;;;;4.10;99.90;;;;;;5075350;28;19919;-89
2021/11/26 03:09:56;;;;;;;;;;;4.00;99.90;;;;;;5070594;28;19917;-89
2021/11/26 03:12:21;;;;;;;;;;;4.00;99.90;;;;;;5075344;28;19912;-76
2021/11/26 03:14:47;;;;;;;;;;;4.00;99.90;;;;;;5088568;28;19912;-92
2021/11/26 03:17:13;;;;;;;;;;;4.10;99.90;;;;;;5072117;28;20022;-76
2021/11/26 03:19:38;;;;;;;;;;;4.10;99.90;;;;;;5072877;28;19942;-76
2021/11/26 03:22:04;;;;;;;;;;;4.10;99.90;;;;;;5068276;28;19917;-76
2021/11/26 03:24:29;;;;;;;;;;;4.10;99.90;;;;;;5071587;28;19912;-75
2021/11/26 03:26:55;;;;;;;;;;;4.20;99.90;;;;;;5056650;28;19952;-79
2021/11/26 03:29:21;;;;;;;;;;;4.20;99.90;;;;;;5068010;28;19913;-76
2021/11/26 03:31:46;;;;;;;;;;;4.20;99.90;;;;;;5075886;28;19959;-75
2021/11/26 03:34:13;;;;;;;;;;;4.10;99.90;;;;;;5078984;28;19912;-75
2021/11/26 03:36:38;;;;;;;;;;;4.20;99.90;;;;;;5061999;28;20357;-76
2021/11/26 03:39:04;;;;;;;;;;;4.20;99.90;;;;;;5072071;28;19913;-75
2021/11/26 03:41:30;;;;;;;;;;;4.10;99.90;;;;;;5075640;28;20641;-76
2021/11/26 03:43:56;;;;;;;;;;;4.10;99.90;;;;;;5073253;28;19963;-76
2021/11/26 03:46:22;;;;;;;;;;;4.10;99.90;;;;;;5072657;28;19967;-75
2021/11/26 03:48:47;;;;;;;;;;;4.10;99.90;;;;;;5072091;28;19948;-75
2021/11/26 03:51:13;;;;;;;;;;;4.10;99.90;;;;;;5076183;28;19921;-76
2021/11/26 03:53:39;;;;;;;;;;;4.00;99.90;;;;;;5066591;28;19909;-75
2021/11/26 03:56:04;;;;;;;;;;;4.00;99.90;;;;;;5066290;28;19927;-75
2021/11/26 03:58:30;;;;;;;;;;;4.00;99.90;;;;;;5053189;28;20648;-76
2021/11/26 04:00:56;;;;;;;;;;;4.00;99.90;;;;;;5058942;28;19917;-75
2021/11/26 04:03:21;;;;;;;;;;;4.00;99.90;;;;;;5056911;28;19912;-75
2021/11/26 04:05:47;;;;;;;;;;;4.00;99.90;;;;;;5071633;28;19962;-75
2021/11/26 04:08:12;;;;;;;;;;;4.00;99.90;;;;;;5069661;28;19909;-77
2021/11/26 04:10:38;;;;;;;;;;;3.90;99.90;;;;;;5068073;28;20322;-76
2021/11/26 04:13:04;;;;;;;;;;;3.90;99.90;;;;;;5070610;28;19916;-91
2021/11/26 04:15:35;;;;;;;;;;;3.90;99.90;;;;;;5074281;28;19967;-78
2021/11/26 04:18:01;;;;;;;;;;;4.00;99.90;;;;;;5072588;28;20036;-76
2021/11/26 04:20:27;;;;;;;;;;;3.90;99.90;;;;;;5064123;28;19986;-76
2021/11/26 04:22:53;;;;;;;;;;;3.90;99.90;;;;;;5063279;28;19908;-87
2021/11/26 04:25:19;;;;;;;;;;;3.90;99.90;;;;;;5074984;28;20382;-77
2021/11/26 04:27:45;;;;;;;;;;;3.90;99.90;;;;;;5076749;28;19913;-76
2021/11/26 04:30:11;;;;;;;;;;;3.90;99.90;;;;;;5073381;28;19966;-95
2021/11/26 04:32:37;;;;;;;;;;;3.80;99.90;;;;;;5072568;28;19951;-88
2021/11/26 04:35:03;;;;;;;;;;;3.80;99.90;;;;;;5072135;28;20299;-79
2021/11/26 04:37:29;;;;;;;;;;;3.80;99.90;;;;;;5072495;28;20596;-76
2021/11/26 04:39:54;;;;;;;;;;;3.80;99.90;;;;;;5072887;28;19952;-78
2021/11/26 04:42:20;;;;;;;;;;;3.80;99.90;;;;;;5074703;28;19970;-93
2021/11/26 04:44:46;;;;;;;;;;;3.90;99.90;;;;;;5069640;28;19931;-91
2021/11/26 04:47:11;;;;;;;;;;;3.80;99.90;;;;;;5070389;28;20062;-87
2021/11/26 04:49:37;;;;;;;;;;;3.80;99.90;;;;;;5059338;28;19913;-78
2021/11/26 04:52:03;;;;;;;;;;;3.80;99.90;;;;;;5086403;28;19916;-89
2021/11/26 04:54:28;;;;;;;;;;;3.80;99.90;;;;;;5073928;28;19921;-77
2021/11/26 04:56:56;;;;;;;;;;;3.80;99.90;;;;;;5074416;28;19929;-78
2021/11/26 04:59:22;;;;;;;;;;;3.80;99.90;;;;;;5069914;28;19995;-96
2021/11/26 05:01:47;;;;;;;;;;;3.80;99.90;;;;;;5074819;28;19923;-92
2021/11/26 05:04:13;;;;;;;;;;;3.70;99.90;;;;;;5072781;28;19913;-95
2021/11/26 05:06:39;;;;;;;;;;;3.80;99.90;;;;;;5074840;28;19912;-85
2021/11/26 05:09:05;;;;;;;;;;;3.70;99.90;;;;;;5063356;28;20299;-95
2021/11/26 05:11:32;;;;;;;;;;;3.80;99.90;;;;;;5074197;28;19973;-94
2021/11/26 05:13:57;;;;;;;;;;;3.70;99.90;;;;;;5074593;28;19908;-94
2021/11/26 05:16:23;;;;;;;;;;;3.70;99.90;;;;;;5073459;28;20310;-81
2021/11/26 05:18:48;;;;;;;;;;;3.70;99.90;;;;;;5074276;28;19921;-78
2021/11/26 05:21:14;;;;;;;;;;;3.70;99.90;;;;;;5077340;28;19916;-94
2021/11/26 05:23:40;;;;;;;;;;;3.70;99.90;;;;;;5085644;28;19912;-76
2021/11/26 05:26:05;;;;;;;;;;;3.60;99.90;;;;;;5064712;28;20299;-83
2021/11/26 05:28:31;;;;;;;;;;;3.70;99.90;;;;;;5073517;28;20348;-94
2021/11/26 05:30:58;;;;;;;;;;;3.70;99.90;;;;;;5065447;28;19958;-94
2021/11/26 05:33:23;;;;;;;;;;;3.70;99.90;;;;;;5074731;28;20314;-78
2021/11/26 05:35:49;;;;;;;;;;;3.70;99.90;;;;;;5082760;28;19947;-80
2021/11/26 05:38:15;;;;;;;;;;;3.70;99.90;;;;;;5072549;28;19908;-93
2021/11/26 05:40:40;;;;;;;;;;;3.70;99.90;;;;;;5069980;28;20281;-77
2021/11/26 05:43:06;;;;;;;;;;;3.80;99.90;;;;;;5072143;28;19908;-92
2021/11/26 05:45:32;;;;;;;;;;;3.70;99.90;;;;;;5073032;28;19920;-93
2021/11/26 05:47:57;;;;;;;;;;;3.70;99.90;;;;;;5067905;28;20004;-86
2021/11/26 05:50:23;;;;;;;;;;;3.80;99.90;;;;;;5073193;28;20015;-95
2021/11/26 05:52:49;;;;;;;;;;;3.80;99.90;;;;;;5076661;28;19916;-82
2021/11/26 05:55:17;;;;;;;;;;;3.70;99.90;;;;;;5065622;28;20031;-89
2021/11/26 05:57:43;;;;;;;;;;;3.80;99.90;;;;;;5066015;28;20303;-93
2021/11/26 06:00:10;;;;;;;;;;;3.70;99.90;;;;;;5076915;28;19927;-78
2021/11/26 06:02:36;;;;;;;;;;;3.70;99.90;;;;;;5077993;28;20265;-89
2021/11/26 06:05:01;;;;;;;;;;;3.70;99.90;;;;;;5074984;28;19913;-90
2021/11/26 06:07:27;;;;;;;;;;;3.70;99.90;;;;;;5070093;28;19954;-90
2021/11/26 06:09:52;;;;;;;;;;;3.70;99.90;;;;;;5076210;28;19918;-94
2021/11/26 06:12:18;;;;;;;;;;;3.70;99.90;;;;;;5074301;28;19916;-82
2021/11/26 06:14:44;;;;;;;;;;;3.60;99.90;;;;;;5076432;28;19995;-89
2021/11/26 06:17:09;;;;;;;;;;;3.60;99.90;;;;;;5065725;28;19920;-93
2021/11/26 06:19:35;;;;;;;;;;;3.60;99.90;;;;;;5069383;28;19920;-88
2021/11/26 06:22:00;;;;;;;;;;;3.60;99.90;;;;;;5073144;28;19913;-89
2021/11/26 06:24:26;;;;;;;;;;;3.50;99.90;;;;;;5073956;28;20359;-90
2021/11/26 06:26:52;;;;;;;;;;;3.50;99.90;;;;;;5071566;28;20292;-89
2021/11/26 06:29:18;;;;;;;;;;;3.50;99.90;;;;;;5069740;28;19924;-94
2021/11/26 06:31:43;;;;;;;;;;;3.50;99.90;;;;;;5071049;28;19948;-90
2021/11/26 06:34:09;;;;;;;;;;;3.50;99.90;;;;;;5073135;28;19939;-90
2021/11/26 06:36:34;;;;;;;;;;;3.50;99.90;;;;;;5081318;28;19928;-94
2021/11/26 06:39:01;;;;;;;;;;;3.50;99.90;;;;;;5075457;28;19935;-94
2021/11/26 06:41:26;;;;;;;;;;;3.50;99.90;;;;;;5069258;28;19998;-93
2021/11/26 06:43:52;;;;;;;;;;;3.50;99.90;;;;;;5074872;28;19962;-94
2021/11/26 06:46:17;;;;;;;;;;;3.50;99.90;;;;;;5069230;28;19935;-94
2021/11/26 06:48:43;;;;;;;;;;;3.50;99.90;;;;;;5075329;28;20370;-95
2021/11/26 06:51:09;;;;;;;;;;;3.50;99.90;;;;;;5071746;28;19939;-95
2021/11/26 06:53:34;;;;;;;;;;;3.50;99.90;;;;;;5068770;28;20012;-92
2021/11/26 06:56:00;;;;;;;;;;;3.50;99.90;;;;;;5068036;28;19964;-92
2021/11/26 06:58:26;;;;;;;;;;;3.50;99.90;;;;;;5066566;28;20019;-91
2021/11/26 07:00:52;;;;;;;;;;;3.50;99.90;;;;;;5072721;28;19912;-91
2021/11/26 07:03:17;;;;;;;;;;;3.50;99.90;;;;;;5076932;28;19927;-93
2021/11/26 07:05:43;;;;;;;;;;;3.50;99.90;;;;;;5072439;28;19912;-93
2021/11/26 07:08:09;;;;;;;;;;;3.50;99.90;;;;;;5076574;28;20003;-92
2021/11/26 07:10:34;;;;;;;;;;;3.50;99.90;;;;;;5074957;28;20321;-93
2021/11/26 07:13:00;;;;;;;;;;;3.50;99.90;;;;;;5071460;28;19916;-91
2021/11/26 07:15:26;;;;;;;;;;;3.50;99.90;;;;;;5073523;28;19920;-92
2021/11/26 07:17:51;;;;;;;;;;;3.50;99.90;;;;;;5067155;28;20595;-93
2021/11/26 07:20:17;;;;;;;;;;;3.50;99.90;;;;;;5061425;28;19916;-92
2021/11/26 07:22:43;;;;;;;;;;;3.50;99.90;;;;;;5067570;28;19909;-89
2021/11/26 07:25:09;;;;;;;;;;;3.50;99.90;;;;;;5070922;28;19917;-82
2021/11/26 07:27:35;;;;;;;;;;;3.60;99.90;;;;;;5068713;28;20004;-93
2021/11/26 07:30:01;;;;;;;;;;;3.60;99.90;;;;;;5069048;28;20553;-91
2021/11/26 07:32:26;;;;;;;;;;;3.60;99.90;;;;;;5068377;28;19962;-93
2021/11/26 07:34:52;;;;;;;;;;;3.60;99.90;;;;;;5082117;28;19955;-92
2021/11/26 07:37:18;;;;;;;;;;;3.60;99.90;;;;;;5067887;28;19928;-92
2021/11/26 07:39:43;;;;;;;;;;;3.60;99.90;;;;;;5081270;28;20188;-93
2021/11/26 07:42:10;;;;;;;;;;;3.60;99.90;;;;;;5074898;28;19918;-87
2021/11/26 07:44:37;;;;;;;;;;;3.70;99.90;;;;;;5074940;28;19978;-95
2021/11/26 07:47:03;;;;;;;;;;;3.70;99.90;;;;;;5068648;28;19913;-93
2021/11/26 07:49:29;;;;;;;;;;;3.70;99.90;;;;;;5067751;28;19943;-78
2021/11/26 07:51:55;;;;;;;;;;;3.70;99.90;;;;;;5076727;28;19921;-91
2021/11/26 07:54:21;;;;;;;;;;;3.80;99.90;;;;;;5081298;28;19920;-92
2021/11/26 07:56:47;;;;;;;;;;;3.80;99.90;;;;;;5071048;28;19912;-92
2021/11/26 07:59:12;;;;;;;;;;;3.80;99.90;;;;;;5065816;28;19917;-89
2021/11/26 08:01:38;;;;;;;;;;;3.80;99.90;;;;;;5069484;28;20307;-87
2021/11/26 08:04:04;;;;;;;;;;;3.80;99.90;;;;;;5067880;28;19913;-94
2021/11/26 08:06:29;;;;;;;;;;;3.80;99.90;;;;;;5072975;28;20015;-94
2021/11/26 08:08:55;;;;;;;;;;;3.90;99.90;;;;;;5070977;28;19913;-91
2021/11/26 08:11:20;;;;;;;;;;;3.90;99.90;;;;;;5067234;28;20390;-91
2021/11/26 08:13:46;;;;;;;;;;;3.90;99.90;;;;;;5071228;28;20319;-93
2021/11/26 08:16:11;;;;;;;;;;;3.90;99.90;;;;;;5061234;28;20302;-90
2021/11/26 08:18:37;;;;;;;;;;;3.90;99.90;;;;;;5059291;28;20377;-90
2021/11/26 08:21:03;;;;;;;;;;;3.90;99.90;;;;;;5063288;28;19952;-91
2021/11/26 08:23:29;;;;;;;;;;;3.90;99.90;;;;;;5084363;28;20008;-91
2021/11/26 08:25:55;;;;;;;;;;;4.00;99.90;;;;;;5071825;28;19913;-90
2021/11/26 08:28:21;;;;;;;;;;;4.00;99.90;;;;;;5068860;28;19970;-90
2021/11/26 08:30:47;;;;;;;;;;;4.00;99.90;;;;;;5074412;23;20261;-92
2021/11/26 08:33:12;;;;;;;;;;;4.00;99.90;;;;;;5045996;28;19924;-92
2021/11/26 08:35:38;;;;;;;;;;;4.10;99.90;;;;;;5047358;28;20363;-87
2021/11/26 08:38:03;;;;;;;;;;;4.20;99.90;;;;;;5022434;28;19913;-94
2021/11/26 08:40:29;;;;;;;;;;;4.20;99.90;;;;;;5025096;28;20201;-91
2021/11/26 08:42:55;;;;;;;;;;;4.30;99.90;;;;;;5050256;28;20679;-84
2021/11/26 08:45:20;;;;;;;;;;;4.30;99.90;;;;;;5029343;28;19913;-87
2021/11/26 08:47:46;;;;;;;;;;;4.40;99.90;;;;;;5029721;28;19914;-88
2021/11/26 08:50:14;;;;;;;;;;;4.40;99.90;;;;;;5029789;28;19924;-88
2021/11/26 08:52:42;;;;;;;;;;;4.40;99.90;;;;;;5027888;28;20624;-91
2021/11/26 08:55:11;;;;;;;;;;;4.40;99.90;;;;;;5025868;28;20355;-88
2021/11/26 08:57:38;;;;;;;;;;;4.40;99.90;;;;;;5030338;28;19917;-89
2021/11/26 09:00:04;;;;;;;;;;;4.50;99.90;;;;;;5029177;28;19980;-94
2021/11/26 09:02:30;;;;;;;;;;;4.50;99.90;;;;;;5026425;28;19948;-93
2021/11/26 09:04:56;;;;;;;;;;;4.50;99.90;;;;;;5032327;28;19969;-90
2021/11/26 09:07:21;;;;;;;;;;;4.40;99.90;;;;;;5041705;28;19913;-88
2021/11/26 09:09:47;;;;;;;;;;;4.40;99.90;;;;;;5029815;28;19917;-91
2021/11/26 09:12:13;;;;;;;;;;;4.50;99.90;;;;;;5024972;28;19924;-93
2021/11/26 09:14:38;;;;;;;;;;;4.40;99.90;;;;;;5017991;28;20008;-86
2021/11/26 09:17:04;;;;;;;;;;;4.40;99.90;;;;;;5029525;28;20217;-90
2021/11/26 09:19:30;;;;;;;;;;;4.40;99.90;;;;;;5028683;28;20491;-90
2021/11/26 09:21:55;;;;;;;;;;;4.50;99.90;;;;;;4996041;28;19954;-87
2021/11/26 09:24:21;;;;;;;;;;;4.40;99.90;;;;;;5046925;28;19917;-92
2021/11/26 09:26:46;;;;;;;;;;;4.40;99.90;;;;;;5024960;28;20041;-88
2021/11/26 09:29:12;;;;;;;;;;;4.40;99.90;;;;;;5026910;28;19924;-86
2021/11/26 09:31:37;;;;;;;;;;;4.40;99.90;;;;;;5030475;28;19925;-89
2021/11/26 09:34:04;;;;;;;;;;;4.40;99.90;;;;;;5026409;28;20248;-90
2021/11/26 09:36:35;;;;;;;;;;;4.40;99.90;;;;;;5029589;28;20223;-91
2021/11/26 09:39:00;;;;;;;;;;;4.50;99.90;;;;;;5031486;28;19913;-90
2021/11/26 09:41:26;;;;;;;;;;;4.50;99.90;;;;;;5029760;28;20367;-87
2021/11/26 09:43:52;;;;;;;;;;;4.50;99.90;;;;;;5028098;28;20856;-84
2021/11/26 09:46:19;;;;;;;;;;;4.50;99.90;;;;;;5039958;28;19919;-92
2021/11/26 09:48:45;;;;;;;;;;;4.50;99.90;;;;;;5029792;28;19920;-92
2021/11/26 09:51:11;;;;;;;;;;;4.50;99.90;;;;;;5042925;28;20297;-93
2021/11/26 09:53:37;;;;;;;;;;;4.60;99.90;;;;;;5047338;28;19953;-91
2021/11/26 09:56:04;;;;;;;;;;;4.60;99.90;;;;;;5031919;28;19968;-87
2021/11/26 09:58:31;;;;;;;;;;;4.60;99.90;;;;;;5029786;28;20258;-91
2021/11/26 10:00:58;;;;;;;;;;;4.60;99.90;;;;;;5036674;28;19925;-89
2021/11/26 10:03:34;;;;;;;;;;;4.60;99.90;;;;;;5046260;28;19916;-92
2021/11/26 10:06:00;;;;;;;;;;;4.60;99.90;;;;;;5044870;28;19917;-90
2021/11/26 10:08:25;;;;;;;;;;;4.60;99.90;;;;;;5058026;28;20031;-86
2021/11/26 10:10:59;;;;;;;;;;;4.60;99.90;;;;;;5041861;28;19913;-88
2021/11/26 10:13:24;;;;;;;;;;;4.60;99.90;;;;;;5045710;28;19959;-91
2021/11/26 10:15:50;;;;;;;;;;;4.70;99.90;;;;;;5066343;23;20022;-92
2021/11/26 10:18:17;;;;;;;;;;;4.70;99.90;;;;;;5074146;28;19923;-92
2021/11/26 10:21:02;;;;;;;;;;;4.80;99.90;;;;;;5073931;28;19980;-90
2021/11/26 10:23:31;;;;;;;;;;;4.80;99.90;;;;;;5067942;28;19912;-93
2021/11/26 10:26:12;;;;;;;;;;;4.90;99.90;;;;;;5069491;28;20308;-87
2021/11/26 10:28:39;;;;;;;;;;;4.90;99.90;;;;;;5071296;28;19912;-88
2021/11/26 10:31:04;;;;;;;;;;;4.90;99.90;;;;;;5074522;28;19939;-93
2021/11/26 10:33:33;;;;;;;;;;;5.00;99.90;;;;;;5068812;23;20386;-92
2021/11/26 10:36:00;;;;;;;;;;;5.00;99.90;;;;;;5062648;28;19959;-90
2021/11/26 10:38:28;;;;;;;;;;;5.00;99.90;;;;;;5051796;28;19924;-94
2021/11/26 10:40:56;;;;;;;;;;;5.00;99.90;;;;;;5051090;28;20401;-92
2021/11/26 10:43:59;;;;;;;;;;;5.00;99.90;;;;;;5050971;28;19995;-87
2021/11/26 10:51:58;;;;;;;;;;;5.10;99.90;;;;;;5030992;28;19920;-89
2021/11/26 10:57:21;;;;;;;;;;;5.20;99.90;;;;;;5026065;28;19921;-89
2021/11/26 10:59:41;;;;;;;;;;;5.20;99.90;;;;;;5025350;28;19944;-90
2021/11/26 11:02:07;;;;;;;;;;;5.30;99.90;;;;;;5025192;28;20007;-84
2021/11/26 11:04:33;;;;;;;;;;;5.30;99.90;;;;;;5030606;28;19961;-92
2021/11/26 11:07:00;;;;;;;;;;;5.40;99.90;;;;;;5024307;28;20007;-89
2021/11/26 11:09:26;;;;;;;;;;;5.40;99.90;;;;;;5029788;28;19971;-88
2021/11/26 11:11:53;;;;;;;;;;;5.40;99.90;;;;;;5046009;28;20012;-92
2021/11/26 11:14:21;;;;;;;;;;;5.40;99.90;;;;;;5029771;28;19973;-92
2021/11/26 11:16:48;;;;;;;;;;;5.40;99.90;;;;;;5012319;28;20322;-90
2021/11/26 11:19:14;;;;;;;;;;;5.50;99.90;;;;;;5026751;28;20397;-93
2021/11/26 11:21:43;;;;;;;;;;;5.50;99.90;;;;;;5021956;28;19913;-90
2021/11/26 11:24:09;;;;;;;;;;;5.50;99.90;;;;;;5047704;28;19917;-88
2021/11/26 11:26:37;;;;;;;;;;;5.50;99.90;;;;;;5042027;28;19936;-93
2021/11/26 11:29:02;;;;;;;;;;;5.50;99.90;;;;;;5046337;28;19924;-88
2021/11/26 11:31:28;;;;;;;;;;;5.50;99.90;;;;;;5044546;28;19916;-92
2021/11/26 11:33:55;;;;;;;;;;;5.60;99.90;;;;;;5040455;28;19928;-88
2021/11/26 11:36:22;;;;;;;;;;;5.60;99.90;;;;;;5036567;28;20227;-86
2021/11/26 11:38:58;;;;;;;;;;;5.70;99.90;;;;;;5051291;28;19923;-86
2021/11/26 11:41:24;;;;;;;;;;;5.70;99.90;;;;;;5067713;28;20577;-84
2021/11/26 11:43:49;;;;;;;;;;;5.70;99.90;;;;;;5068214;28;20322;-87
2021/11/26 11:46:16;;;;;;;;;;;5.70;99.90;;;;;;5052341;28;19913;-84
2021/11/26 11:48:44;;;;;;;;;;;5.60;99.90;;;;;;5047057;28;19919;-86
2021/11/26 11:51:19;;;;;;;;;;;5.50;99.90;;;;;;5049510;28;20003;-91
2021/11/26 11:53:46;;;;;;;;;;;5.50;99.90;;;;;;5050401;28;19920;-86
2021/11/26 11:56:13;;;;;;;;;;;5.40;99.90;;;;;;5051140;28;19924;-86
2021/11/26 11:58:47;;;;;;;;;;;5.40;99.90;;;;;;5045260;28;20007;-90
2021/11/26 12:01:18;;;;;;;;;;;5.30;99.90;;;;;;5051107;28;19923;-85
2021/11/26 12:03:44;;;;;;;;;;;5.20;99.90;;;;;;5051857;28;19919;-84
2021/11/26 12:06:10;;;;;;;;;;;5.20;99.90;;;;;;5049057;28;19913;-86
2021/11/26 12:08:52;;;;;;;;;;;5.20;99.90;;;;;;5047768;28;19941;-90
2021/11/26 12:11:32;;;;;;;;;;;5.20;99.90;;;;;;5046043;28;19921;-85
2021/11/26 12:14:02;;;;;;;;;;;5.20;99.90;;;;;;5050458;28;20013;-80
2021/11/26 12:16:29;;;;;;;;;;;5.10;99.90;;;;;;5046903;28;19974;-82
2021/11/26 12:18:54;;;;;;;;;;;5.10;99.90;;;;;;5047480;28;19975;-91
2021/11/26 12:21:22;;;;;;;;;;;5.10;99.90;;;;;;5050636;28;20653;-78
2021/11/26 12:24:05;;;;;;;;;;;5.10;99.90;;;;;;5047608;28;19921;-87
2021/11/26 12:26:53;;;;;;;;;;;5.10;99.90;;;;;;5046779;28;20011;-92
2021/11/26 12:29:22;;;;;;;;;;;5.10;99.90;;;;;;5045777;28;19920;-84
2021/11/26 12:31:48;;;;;;;;;;;5.10;99.90;;;;;;5046926;28;20373;-82
2021/11/26 12:34:19;;;;;;;;;;;5.00;99.90;;;;;;5049910;28;20381;-88
2021/11/26 12:36:46;;;;;;;;;;;5.00;99.90;;;;;;5039635;28;19916;-89
2021/11/26 12:39:23;;;;;;;;;;;4.90;99.90;;;;;;5042814;28;19913;-89
2021/11/26 12:41:50;;;;;;;;;;;4.90;99.90;;;;;;5035395;28;19924;-77
2021/11/26 12:44:18;;;;;;;;;;;4.80;99.90;;;;;;5046739;28;20360;-78
2021/11/26 12:46:44;;;;;;;;;;;4.70;99.90;;;;;;5044993;28;19917;-78
2021/11/26 12:51:51;;;;;;;;;;;4.60;99.90;;;;;;5047649;28;19921;-79
2021/11/26 12:54:36;;;;;;;;;;;4.50;99.90;;;;;;5048248;28;19916;-80
2021/11/26 12:57:06;;;;;;;;;;;4.50;99.90;;;;;;5045283;28;19921;-78
2021/11/26 12:59:37;;;;;;;;;;;4.50;99.90;;;;;;5046926;28;19920;-80
2021/11/26 13:02:04;;;;;;;;;;;4.50;99.90;;;;;;5046682;28;20307;-80
2021/11/26 13:04:30;;;;;;;;;;;4.50;99.90;;;;;;5046463;28;19925;-79
2021/11/26 13:07:07;;;;;;;;;;;4.50;99.90;;;;;;5045850;28;19921;-77
2021/11/26 13:09:45;;;;;;;;;;;4.40;99.90;;;;;;5046817;28;19916;-82
2021/11/26 13:12:11;;;;;;;;;;;4.40;99.90;;;;;;5050368;28;20604;-81
2021/11/26 13:14:42;;;;;;;;;;;4.40;99.90;;;;;;5044207;28;19948;-78
2021/11/26 13:17:08;;;;;;;;;;;4.40;99.90;;;;;;5047113;28;19928;-80
2021/11/26 13:19:33;;;;;;;;;;;4.30;99.90;;;;;;5051679;28;19917;-76
2021/11/26 13:21:59;;;;;;;;;;;4.30;99.90;;;;;;5049068;28;19921;-77
2021/11/26 13:24:25;;;;;;;;;;;4.30;99.90;;;;;;5055858;28;19916;-76
2021/11/26 13:26:50;;;;;;;;;;;4.30;99.90;;;;;;5046113;28;19917;-77
2021/11/26 13:29:16;;;;;;;;;;;4.30;99.90;;;;;;5042961;28;20003;-76
2021/11/26 13:31:43;;;;;;;;;;;4.20;99.90;;;;;;5047130;28;20332;-80
2021/11/26 13:34:10;;;;;;;;;;;4.20;99.90;;;;;;5030344;28;19932;-76
2021/11/26 13:36:37;;;;;;;;;;;4.20;99.90;;;;;;5047541;28;19927;-78
2021/11/26 13:39:15;;;;;;;;;;;4.20;99.90;;;;;;5050611;28;20383;-76
2021/11/26 13:41:42;;;;;;;;;;;4.30;99.90;;;;;;5038815;28;19917;-77
2021/11/26 13:44:09;;;;;;;;;;;4.30;99.90;;;;;;5045812;28;19913;-76
2021/11/26 13:46:36;;;;;;;;;;;4.30;99.90;;;;;;5046643;28;20299;-78
2021/11/26 13:49:01;;;;;;;;;;;4.30;99.90;;;;;;5044794;28;20193;-76
2021/11/26 13:51:29;;;;;;;;;;;4.30;99.90;;;;;;5067331;28;19921;-77
2021/11/26 13:53:55;;;;;;;;;;;4.30;99.90;;;;;;5036527;28;19967;-76
2021/11/26 13:56:31;;;;;;;;;;;4.20;99.90;;;;;;5042573;28;20377;-78
2021/11/26 13:59:02;;;;;;;;;;;4.20;99.90;;;;;;5040326;28;20216;-79
2021/11/26 14:01:33;;;;;;;;;;;4.30;99.90;;;;;;5044433;28;19924;-76
2021/11/26 14:04:09;;;;;;;;;;;4.20;99.90;;;;;;5043374;28;19917;-77
2021/11/26 14:06:35;;;;;;;;;;;4.20;99.90;;;;;;5041161;28;19944;-75
2021/11/26 14:09:08;;;;;;;;;;;4.20;99.90;;;;;;5047382;28;19982;-76
2021/11/26 14:11:44;;;;;;;;;;;4.20;99.90;;;;;;5059703;28;20270;-76
2021/11/26 14:14:13;;;;;;;;;;;4.20;99.90;;;;;;5037624;28;19928;-75
2021/11/26 14:16:54;;;;;;;;;;;4.20;99.90;;;;;;5048397;28;19921;-76
2021/11/26 14:19:28;;;;;;;;;;;4.20;99.90;;;;;;5056628;28;19916;-76
2021/11/26 14:21:57;;;;;;;;;;;4.20;99.90;;;;;;5049973;28;20040;-76
2021/11/26 14:24:35;;;;;;;;;;;4.20;99.90;;;;;;5061685;28;19913;-76
2021/11/26 14:27:01;;;;;;;;;;;4.10;99.90;;;;;;5039277;28;19921;-76
2021/11/26 14:29:29;;;;;;;;;;;4.20;99.90;;;;;;5051316;28;20022;-78
2021/11/26 14:31:55;;;;;;;;;;;4.20;99.90;;;;;;5050124;28;19917;-75
2021/11/26 14:34:21;;;;;;;;;;;4.20;99.90;;;;;;5047317;28;20303;-76
2021/11/26 14:36:48;;;;;;;;;;;4.10;99.90;;;;;;5046179;28;20193;-75
2021/11/26 14:39:14;;;;;;;;;;;4.10;99.90;;;;;;5044021;28;20007;-76
2021/11/26 14:41:41;;;;;;;;;;;4.10;99.90;;;;;;5052127;28;20453;-75